sensor_id;sensor_type;location;lat;lon;timestamp;noise_LAeq;noise_LA_min;noise_LA_max;noise_LA01;noise_LA95
69611;Laerm;56817;52.302;4.844;2023-02-10T00:00:04;41.19;38.19;44.19;;
69611;Laerm;56817;52.302;4.844;2023-02-10T00:00:14;41.52;38.20;44.63;;
69611;Laerm;56817;52.302;4.844;2023-02-10T00:00:25;40.61;37.41;43.80;;
69611;Laerm;56817;52.302;4.844;2023-02-10T00:00:35;42.27;38.25;45.68;;
69611;Laerm;56817;52.302;4.844;2023-02-10T00:00:45;41.51;37.17;45.98;;
69611;Laerm;56817;52.302;4.844;2023-02-10T00:00:56;41.80;39.11;45.24;;
69611;Laerm;56817;52.302;4.844;2023-02-10T00:01:10;42.45;39.34;45.41;;
69611;Laerm;56817;52.302;4.844;2023-02-10T00:01:22;41.78;38.30;44.73;;
69611;Laerm;56817;52.302;4.844;2023-02-10T00:01:32;42.20;38.24;45.01;;
69611;Laerm;56817;52.302;4.844;2023-02-10T00:01:43;41.17;38.43;43.38;;
69611;Laerm;56817;52.302;4.844;2023-02-10T00:01:53;40.95;38.52;43.00;;
69611;Laerm;56817;52.302;4.844;2023-02-10T00:02:03;41.35;38.90;43.42;;
69611;Laerm;56817;52.302;4.844;2023-02-10T00:02:14;40.71;37.56;43.59;;
69611;Laerm;56817;52.302;4.844;2023-02-10T00:02:24;40.62;38.37;43.46;;
69611;Laerm;56817;52.302;4.844;2023-02-10T00:02:34;41.28;38.81;44.29;;
69611;Laerm;56817;52.302;4.844;2023-02-10T00:02:44;41.23;38.69;44.38;;
69611;Laerm;56817;52.302;4.844;2023-02-10T00:02:55;41.24;38.98;43.26;;
69611;Laerm;56817;52.302;4.844;2023-02-10T00:03:05;41.26;38.52;43.95;;
69611;Laerm;56817;52.302;4.844;2023-02-10T00:03:15;41.38;38.24;44.49;;
69611;Laerm;56817;52.302;4.844;2023-02-10T00:03:25;40.84;37.92;43.56;;
69611;Laerm;56817;52.302;4.844;2023-02-10T00:03:36;40.67;38.36;42.75;;
69611;Laerm;56817;52.302;4.844;2023-02-10T00:03:46;40.83;38.16;43.47;;
69611;Laerm;56817;52.302;4.844;2023-02-10T00:03:57;40.94;37.72;43.05;;
69611;Laerm;56817;52.302;4.844;2023-02-10T00:04:09;41.22;38.60;43.42;;
69611;Laerm;56817;52.302;4.844;2023-02-10T00:04:20;42.05;38.94;44.29;;
69611;Laerm;56817;52.302;4.844;2023-02-10T00:04:30;41.86;38.94;44.26;;
69611;Laerm;56817;52.302;4.844;2023-02-10T00:04:40;43.73;40.75;47.24;;
69611;Laerm;56817;52.302;4.844;2023-02-10T00:04:51;42.67;40.08;47.50;;
69611;Laerm;56817;52.302;4.844;2023-02-10T00:05:01;43.02;40.14;44.90;;
69611;Laerm;56817;52.302;4.844;2023-02-10T00:05:11;43.17;40.80;45.47;;
69611;Laerm;56817;52.302;4.844;2023-02-10T00:05:21;41.81;38.69;43.81;;
69611;Laerm;56817;52.302;4.844;2023-02-10T00:05:32;42.34;39.91;44.75;;
69611;Laerm;56817;52.302;4.844;2023-02-10T00:05:42;42.89;41.02;45.41;;
69611;Laerm;56817;52.302;4.844;2023-02-10T00:05:54;42.59;40.04;44.40;;
69611;Laerm;56817;52.302;4.844;2023-02-10T00:06:05;41.86;39.21;44.90;;
69611;Laerm;56817;52.302;4.844;2023-02-10T00:06:16;42.24;38.80;45.09;;
69611;Laerm;56817;52.302;4.844;2023-02-10T00:06:27;41.47;38.82;43.72;;
69611;Laerm;56817;52.302;4.844;2023-02-10T00:06:37;41.46;38.01;44.05;;
69611;Laerm;56817;52.302;4.844;2023-02-10T00:06:47;42.28;39.17;44.67;;
69611;Laerm;56817;52.302;4.844;2023-02-10T00:06:58;42.76;39.48;45.27;;
69611;Laerm;56817;52.302;4.844;2023-02-10T00:07:08;43.15;40.25;45.38;;
69611;Laerm;56817;52.302;4.844;2023-02-10T00:07:18;43.04;40.78;45.32;;
69611;Laerm;56817;52.302;4.844;2023-02-10T00:07:28;43.25;40.77;45.38;;
69611;Laerm;56817;52.302;4.844;2023-02-10T00:07:39;43.49;41.32;46.18;;
69611;Laerm;56817;52.302;4.844;2023-02-10T00:07:49;42.76;39.91;45.47;;
69611;Laerm;56817;52.302;4.844;2023-02-10T00:07:59;43.16;39.13;45.52;;
69611;Laerm;56817;52.302;4.844;2023-02-10T00:08:10;42.17;38.61;44.13;;
69611;Laerm;56817;52.302;4.844;2023-02-10T00:08:20;42.36;39.41;45.76;;
69611;Laerm;56817;52.302;4.844;2023-02-10T00:08:30;42.50;40.23;44.28;;
69611;Laerm;56817;52.302;4.844;2023-02-10T00:08:41;42.83;39.66;45.61;;
69611;Laerm;56817;52.302;4.844;2023-02-10T00:08:52;42.02;38.85;45.16;;
69611;Laerm;56817;52.302;4.844;2023-02-10T00:09:03;42.37;38.97;44.81;;
69611;Laerm;56817;52.302;4.844;2023-02-10T00:09:13;43.66;40.88;47.13;;
69611;Laerm;56817;52.302;4.844;2023-02-10T00:09:24;43.08;39.87;45.94;;
69611;Laerm;56817;52.302;4.844;2023-02-10T00:09:34;43.10;40.16;45.87;;
69611;Laerm;56817;52.302;4.844;2023-02-10T00:09:44;41.98;39.80;44.79;;
69611;Laerm;56817;52.302;4.844;2023-02-10T00:09:54;41.93;38.71;44.44;;
69611;Laerm;56817;52.302;4.844;2023-02-10T00:10:05;41.81;38.85;44.80;;
69611;Laerm;56817;52.302;4.844;2023-02-10T00:10:15;41.62;37.86;43.98;;
69611;Laerm;56817;52.302;4.844;2023-02-10T00:10:26;41.88;39.37;44.39;;
69611;Laerm;56817;52.302;4.844;2023-02-10T00:10:36;41.20;38.01;43.78;;
69611;Laerm;56817;52.302;4.844;2023-02-10T00:10:46;41.50;38.78;43.65;;
69611;Laerm;56817;52.302;4.844;2023-02-10T00:10:57;42.41;37.92;45.03;;
69611;Laerm;56817;52.302;4.844;2023-02-10T00:11:09;42.44;39.18;45.01;;
69611;Laerm;56817;52.302;4.844;2023-02-10T00:11:21;43.19;40.99;45.29;;
69611;Laerm;56817;52.302;4.844;2023-02-10T00:11:54;42.32;39.53;45.13;;
69611;Laerm;56817;52.302;4.844;2023-02-10T00:12:07;42.57;39.75;44.74;;
69611;Laerm;56817;52.302;4.844;2023-02-10T00:12:18;42.53;39.99;44.69;;
69611;Laerm;56817;52.302;4.844;2023-02-10T00:12:28;41.97;39.36;44.04;;
69611;Laerm;56817;52.302;4.844;2023-02-10T00:12:39;42.49;39.21;45.37;;
69611;Laerm;56817;52.302;4.844;2023-02-10T00:12:49;41.30;38.63;44.35;;
69611;Laerm;56817;52.302;4.844;2023-02-10T00:12:59;41.93;38.59;44.45;;
69611;Laerm;56817;52.302;4.844;2023-02-10T00:13:09;42.63;40.01;44.98;;
69611;Laerm;56817;52.302;4.844;2023-02-10T00:13:19;42.21;39.28;45.66;;
69611;Laerm;56817;52.302;4.844;2023-02-10T00:13:30;41.70;39.17;43.79;;
69611;Laerm;56817;52.302;4.844;2023-02-10T00:13:41;41.97;39.01;44.71;;
69611;Laerm;56817;52.302;4.844;2023-02-10T00:13:51;42.10;39.86;43.94;;
69611;Laerm;56817;52.302;4.844;2023-02-10T00:14:01;43.85;41.23;46.13;;
69611;Laerm;56817;52.302;4.844;2023-02-10T00:14:12;42.70;39.82;46.07;;
69611;Laerm;56817;52.302;4.844;2023-02-10T00:14:23;43.20;40.63;45.46;;
69611;Laerm;56817;52.302;4.844;2023-02-10T00:14:33;42.17;39.11;44.75;;
69611;Laerm;56817;52.302;4.844;2023-02-10T00:14:43;42.24;39.69;44.48;;
69611;Laerm;56817;52.302;4.844;2023-02-10T00:14:54;42.14;39.46;44.52;;
69611;Laerm;56817;52.302;4.844;2023-02-10T00:15:04;41.79;38.93;44.62;;
69611;Laerm;56817;52.302;4.844;2023-02-10T00:15:14;41.89;39.20;43.99;;
69611;Laerm;56817;52.302;4.844;2023-02-10T00:15:25;41.86;38.72;45.38;;
69611;Laerm;56817;52.302;4.844;2023-02-10T00:15:36;41.81;39.31;44.24;;
69611;Laerm;56817;52.302;4.844;2023-02-10T00:15:46;42.22;39.66;44.93;;
69611;Laerm;56817;52.302;4.844;2023-02-10T00:15:57;41.15;38.59;43.72;;
69611;Laerm;56817;52.302;4.844;2023-02-10T00:16:10;41.55;37.92;49.54;;
69611;Laerm;56817;52.302;4.844;2023-02-10T00:16:20;42.99;40.04;47.06;;
69611;Laerm;56817;52.302;4.844;2023-02-10T00:16:31;45.79;41.78;49.84;;
69611;Laerm;56817;52.302;4.844;2023-02-10T00:16:41;45.22;40.10;53.71;;
69611;Laerm;56817;52.302;4.844;2023-02-10T00:16:52;42.83;39.52;44.85;;
69611;Laerm;56817;52.302;4.844;2023-02-10T00:17:03;43.15;40.58;45.65;;
69611;Laerm;56817;52.302;4.844;2023-02-10T00:17:13;43.30;40.85;45.57;;
69611;Laerm;56817;52.302;4.844;2023-02-10T00:17:27;42.75;40.17;45.02;;
69611;Laerm;56817;52.302;4.844;2023-02-10T00:17:37;42.92;40.50;45.74;;
69611;Laerm;56817;52.302;4.844;2023-02-10T00:17:47;43.14;40.82;45.51;;
69611;Laerm;56817;52.302;4.844;2023-02-10T00:17:58;42.78;39.95;45.25;;
69611;Laerm;56817;52.302;4.844;2023-02-10T00:18:08;42.39;39.68;44.74;;
69611;Laerm;56817;52.302;4.844;2023-02-10T00:18:18;42.20;39.23;44.44;;
69611;Laerm;56817;52.302;4.844;2023-02-10T00:18:28;41.63;38.76;43.68;;
69611;Laerm;56817;52.302;4.844;2023-02-10T00:18:39;41.90;39.63;44.55;;
69611;Laerm;56817;52.302;4.844;2023-02-10T00:18:49;42.14;38.82;44.64;;
69611;Laerm;56817;52.302;4.844;2023-02-10T00:19:00;41.56;39.20;43.58;;
69611;Laerm;56817;52.302;4.844;2023-02-10T00:19:10;41.93;38.22;44.05;;
69611;Laerm;56817;52.302;4.844;2023-02-10T00:19:21;42.25;39.51;45.04;;
69611;Laerm;56817;52.302;4.844;2023-02-10T00:19:31;42.18;40.10;44.30;;
69611;Laerm;56817;52.302;4.844;2023-02-10T00:19:43;42.30;39.70;46.31;;
69611;Laerm;56817;52.302;4.844;2023-02-10T00:19:53;42.48;38.67;44.67;;
69611;Laerm;56817;52.302;4.844;2023-02-10T00:20:03;41.93;38.88;44.08;;
69611;Laerm;56817;52.302;4.844;2023-02-10T00:20:14;41.62;38.89;44.53;;
69611;Laerm;56817;52.302;4.844;2023-02-10T00:20:24;41.61;39.15;44.43;;
69611;Laerm;56817;52.302;4.844;2023-02-10T00:20:34;41.45;38.90;44.95;;
69611;Laerm;56817;52.302;4.844;2023-02-10T00:20:44;41.70;39.20;43.94;;
69611;Laerm;56817;52.302;4.844;2023-02-10T00:20:55;41.82;39.70;44.04;;
69611;Laerm;56817;52.302;4.844;2023-02-10T00:21:23;41.97;38.63;44.39;;
69611;Laerm;56817;52.302;4.844;2023-02-10T00:21:33;42.15;39.01;45.24;;
69611;Laerm;56817;52.302;4.844;2023-02-10T00:21:43;42.30;39.27;45.65;;
69611;Laerm;56817;52.302;4.844;2023-02-10T00:21:54;42.80;39.93;44.79;;
69611;Laerm;56817;52.302;4.844;2023-02-10T00:22:04;42.19;39.80;44.71;;
69611;Laerm;56817;52.302;4.844;2023-02-10T00:22:14;42.11;39.73;44.59;;
69611;Laerm;56817;52.302;4.844;2023-02-10T00:22:25;42.61;39.87;45.12;;
69611;Laerm;56817;52.302;4.844;2023-02-10T00:22:35;43.36;39.91;48.02;;
69611;Laerm;56817;52.302;4.844;2023-02-10T00:22:45;44.98;40.51;52.01;;
69611;Laerm;56817;52.302;4.844;2023-02-10T00:22:56;42.41;39.46;44.60;;
69611;Laerm;56817;52.302;4.844;2023-02-10T00:23:06;41.52;39.13;45.20;;
69611;Laerm;56817;52.302;4.844;2023-02-10T00:23:17;41.76;38.70;44.11;;
69611;Laerm;56817;52.302;4.844;2023-02-10T00:23:27;42.26;39.75;44.65;;
69611;Laerm;56817;52.302;4.844;2023-02-10T00:23:37;41.93;39.24;44.60;;
69611;Laerm;56817;52.302;4.844;2023-02-10T00:23:48;42.61;39.98;45.18;;
69611;Laerm;56817;52.302;4.844;2023-02-10T00:23:58;42.35;40.13;45.22;;
69611;Laerm;56817;52.302;4.844;2023-02-10T00:24:08;42.35;39.18;44.53;;
69611;Laerm;56817;52.302;4.844;2023-02-10T00:24:19;42.14;39.65;44.38;;
69611;Laerm;56817;52.302;4.844;2023-02-10T00:24:29;41.80;39.29;43.79;;
69611;Laerm;56817;52.302;4.844;2023-02-10T00:24:40;41.61;38.66;44.33;;
69611;Laerm;56817;52.302;4.844;2023-02-10T00:24:50;42.00;38.75;44.79;;
69611;Laerm;56817;52.302;4.844;2023-02-10T00:25:00;41.80;39.24;44.17;;
69611;Laerm;56817;52.302;4.844;2023-02-10T00:25:10;41.17;38.49;43.61;;
69611;Laerm;56817;52.302;4.844;2023-02-10T00:25:20;41.89;39.35;44.44;;
69611;Laerm;56817;52.302;4.844;2023-02-10T00:25:31;42.15;39.85;44.21;;
69611;Laerm;56817;52.302;4.844;2023-02-10T00:25:41;41.67;39.37;44.53;;
69611;Laerm;56817;52.302;4.844;2023-02-10T00:25:51;41.48;38.84;43.62;;
69611;Laerm;56817;52.302;4.844;2023-02-10T00:26:03;41.73;38.63;44.06;;
69611;Laerm;56817;52.302;4.844;2023-02-10T00:26:13;42.48;39.71;44.80;;
69611;Laerm;56817;52.302;4.844;2023-02-10T00:26:24;42.46;39.89;44.88;;
69611;Laerm;56817;52.302;4.844;2023-02-10T00:26:35;42.49;40.10;44.77;;
69611;Laerm;56817;52.302;4.844;2023-02-10T00:26:45;42.29;39.51;45.10;;
69611;Laerm;56817;52.302;4.844;2023-02-10T00:26:56;42.63;39.80;45.58;;
69611;Laerm;56817;52.302;4.844;2023-02-10T00:27:06;42.67;40.12;45.21;;
69611;Laerm;56817;52.302;4.844;2023-02-10T00:27:16;42.61;39.60;45.00;;
69611;Laerm;56817;52.302;4.844;2023-02-10T00:27:33;42.97;39.54;45.58;;
69611;Laerm;56817;52.302;4.844;2023-02-10T00:27:43;43.24;40.28;45.82;;
69611;Laerm;56817;52.302;4.844;2023-02-10T00:27:53;42.75;40.46;45.26;;
69611;Laerm;56817;52.302;4.844;2023-02-10T00:28:03;42.32;39.52;44.40;;
69611;Laerm;56817;52.302;4.844;2023-02-10T00:28:14;42.63;40.24;44.90;;
69611;Laerm;56817;52.302;4.844;2023-02-10T00:28:24;41.98;39.24;44.49;;
69611;Laerm;56817;52.302;4.844;2023-02-10T00:28:34;42.56;39.99;44.92;;
69611;Laerm;56817;52.302;4.844;2023-02-10T00:28:44;42.56;39.37;44.85;;
69611;Laerm;56817;52.302;4.844;2023-02-10T00:28:55;42.49;39.58;45.54;;
69611;Laerm;56817;52.302;4.844;2023-02-10T00:29:05;43.33;40.58;45.47;;
69611;Laerm;56817;52.302;4.844;2023-02-10T00:29:15;43.17;40.80;45.91;;
69611;Laerm;56817;52.302;4.844;2023-02-10T00:29:26;42.69;40.20;44.62;;
69611;Laerm;56817;52.302;4.844;2023-02-10T00:29:36;42.97;40.07;45.02;;
69611;Laerm;56817;52.302;4.844;2023-02-10T00:29:46;43.09;39.77;45.18;;
69611;Laerm;56817;52.302;4.844;2023-02-10T00:29:58;43.35;39.80;45.83;;
69611;Laerm;56817;52.302;4.844;2023-02-10T00:30:08;43.18;40.55;45.35;;
69611;Laerm;56817;52.302;4.844;2023-02-10T00:30:19;43.71;41.41;45.57;;
69611;Laerm;56817;52.302;4.844;2023-02-10T00:30:30;43.52;40.20;46.06;;
69611;Laerm;56817;52.302;4.844;2023-02-10T00:30:40;43.14;40.46;45.53;;
69611;Laerm;56817;52.302;4.844;2023-02-10T00:30:50;42.91;39.89;44.91;;
69611;Laerm;56817;52.302;4.844;2023-02-10T00:31:05;42.19;39.45;44.48;;
69611;Laerm;56817;52.302;4.844;2023-02-10T00:31:15;41.32;38.60;43.81;;
69611;Laerm;56817;52.302;4.844;2023-02-10T00:31:28;41.33;38.45;43.71;;
69611;Laerm;56817;52.302;4.844;2023-02-10T00:31:39;40.94;37.11;43.39;;
69611;Laerm;56817;52.302;4.844;2023-02-10T00:31:49;41.18;38.16;43.82;;
69611;Laerm;56817;52.302;4.844;2023-02-10T00:31:59;41.02;38.04;44.21;;
69611;Laerm;56817;52.302;4.844;2023-02-10T00:32:09;41.48;39.00;43.60;;
69611;Laerm;56817;52.302;4.844;2023-02-10T00:32:20;41.66;39.08;43.69;;
69611;Laerm;56817;52.302;4.844;2023-02-10T00:32:31;42.49;40.37;45.59;;
69611;Laerm;56817;52.302;4.844;2023-02-10T00:32:41;42.16;39.82;45.18;;
69611;Laerm;56817;52.302;4.844;2023-02-10T00:32:51;43.00;39.71;45.24;;
69611;Laerm;56817;52.302;4.844;2023-02-10T00:33:02;43.40;40.60;45.58;;
69611;Laerm;56817;52.302;4.844;2023-02-10T00:33:12;43.04;40.53;45.22;;
69611;Laerm;56817;52.302;4.844;2023-02-10T00:33:22;43.31;41.03;45.78;;
69611;Laerm;56817;52.302;4.844;2023-02-10T00:33:32;44.36;40.65;48.54;;
69611;Laerm;56817;52.302;4.844;2023-02-10T00:33:43;41.89;39.24;43.92;;
69611;Laerm;56817;52.302;4.844;2023-02-10T00:33:53;41.41;38.83;43.40;;
69611;Laerm;56817;52.302;4.844;2023-02-10T00:34:03;41.32;38.07;43.41;;
69611;Laerm;56817;52.302;4.844;2023-02-10T00:34:14;42.14;39.32;45.09;;
69611;Laerm;56817;52.302;4.844;2023-02-10T00:34:25;41.74;38.20;44.33;;
69611;Laerm;56817;52.302;4.844;2023-02-10T00:34:37;42.13;38.95;46.06;;
69611;Laerm;56817;52.302;4.844;2023-02-10T00:34:47;42.71;39.07;46.97;;
69611;Laerm;56817;52.302;4.844;2023-02-10T00:34:58;41.56;38.83;44.27;;
69611;Laerm;56817;52.302;4.844;2023-02-10T00:35:08;41.61;38.19;43.63;;
69611;Laerm;56817;52.302;4.844;2023-02-10T00:35:18;42.66;40.21;44.86;;
69611;Laerm;56817;52.302;4.844;2023-02-10T00:35:28;42.40;38.98;45.71;;
69611;Laerm;56817;52.302;4.844;2023-02-10T00:35:39;42.34;39.95;44.62;;
69611;Laerm;56817;52.302;4.844;2023-02-10T00:35:49;42.76;39.99;44.97;;
69611;Laerm;56817;52.302;4.844;2023-02-10T00:36:02;42.24;39.60;44.28;;
69611;Laerm;56817;52.302;4.844;2023-02-10T00:36:13;41.45;38.63;44.38;;
69611;Laerm;56817;52.302;4.844;2023-02-10T00:36:24;41.66;39.42;44.05;;
69611;Laerm;56817;52.302;4.844;2023-02-10T00:36:34;41.92;39.38;43.95;;
69611;Laerm;56817;52.302;4.844;2023-02-10T00:36:44;41.70;38.61;44.24;;
69611;Laerm;56817;52.302;4.844;2023-02-10T00:36:55;42.07;39.84;44.27;;
69611;Laerm;56817;52.302;4.844;2023-02-10T00:37:05;42.90;40.30;45.06;;
69611;Laerm;56817;52.302;4.844;2023-02-10T00:37:16;43.19;41.34;45.35;;
69611;Laerm;56817;52.302;4.844;2023-02-10T00:37:26;43.12;40.65;45.47;;
69611;Laerm;56817;52.302;4.844;2023-02-10T00:37:36;42.71;40.16;45.51;;
69611;Laerm;56817;52.302;4.844;2023-02-10T00:37:46;42.00;38.89;44.47;;
69611;Laerm;56817;52.302;4.844;2023-02-10T00:37:57;41.65;37.79;44.33;;
69611;Laerm;56817;52.302;4.844;2023-02-10T00:38:07;41.87;39.33;44.35;;
69611;Laerm;56817;52.302;4.844;2023-02-10T00:38:17;41.39;39.08;43.64;;
69611;Laerm;56817;52.302;4.844;2023-02-10T00:38:27;42.67;39.24;45.00;;
69611;Laerm;56817;52.302;4.844;2023-02-10T00:38:38;42.71;40.57;45.64;;
69611;Laerm;56817;52.302;4.844;2023-02-10T00:38:48;42.94;40.05;46.08;;
69611;Laerm;56817;52.302;4.844;2023-02-10T00:38:59;42.86;40.77;45.65;;
69611;Laerm;56817;52.302;4.844;2023-02-10T00:39:12;43.15;40.43;46.00;;
69611;Laerm;56817;52.302;4.844;2023-02-10T00:39:23;44.89;41.19;52.23;;
69611;Laerm;56817;52.302;4.844;2023-02-10T00:39:33;42.70;40.53;44.81;;
69611;Laerm;56817;52.302;4.844;2023-02-10T00:39:43;41.79;39.09;44.04;;
69611;Laerm;56817;52.302;4.844;2023-02-10T00:39:55;41.36;39.17;44.08;;
69611;Laerm;56817;52.302;4.844;2023-02-10T00:40:06;41.00;38.69;43.33;;
69611;Laerm;56817;52.302;4.844;2023-02-10T00:40:17;41.17;38.42;43.73;;
69611;Laerm;56817;52.302;4.844;2023-02-10T00:40:27;41.48;38.49;45.39;;
69611;Laerm;56817;52.302;4.844;2023-02-10T00:40:37;41.66;39.23;43.86;;
69611;Laerm;56817;52.302;4.844;2023-02-10T00:40:48;41.53;38.94;44.61;;
69611;Laerm;56817;52.302;4.844;2023-02-10T00:41:01;41.69;38.93;46.02;;
69611;Laerm;56817;52.302;4.844;2023-02-10T00:41:13;41.58;38.51;48.15;;
69611;Laerm;56817;52.302;4.844;2023-02-10T00:41:23;41.11;38.67;46.07;;
69611;Laerm;56817;52.302;4.844;2023-02-10T00:41:34;40.70;37.79;43.00;;
69611;Laerm;56817;52.302;4.844;2023-02-10T00:41:45;41.63;39.20;44.19;;
69611;Laerm;56817;52.302;4.844;2023-02-10T00:41:55;41.80;38.82;46.16;;
69611;Laerm;56817;52.302;4.844;2023-02-10T00:42:05;42.86;39.85;51.99;;
69611;Laerm;56817;52.302;4.844;2023-02-10T00:42:15;42.11;39.66;43.97;;
69611;Laerm;56817;52.302;4.844;2023-02-10T00:42:26;41.94;39.25;44.10;;
69611;Laerm;56817;52.302;4.844;2023-02-10T00:42:36;42.05;39.72;44.47;;
69611;Laerm;56817;52.302;4.844;2023-02-10T00:42:46;41.41;38.41;43.90;;
69611;Laerm;56817;52.302;4.844;2023-02-10T00:42:56;42.30;39.88;44.87;;
69611;Laerm;56817;52.302;4.844;2023-02-10T00:43:07;42.72;40.12;44.64;;
69611;Laerm;56817;52.302;4.844;2023-02-10T00:43:17;42.55;39.62;45.01;;
69611;Laerm;56817;52.302;4.844;2023-02-10T00:43:27;42.47;39.64;44.45;;
69611;Laerm;56817;52.302;4.844;2023-02-10T00:43:37;42.38;39.00;44.91;;
69611;Laerm;56817;52.302;4.844;2023-02-10T00:43:52;42.08;39.07;44.72;;
69611;Laerm;56817;52.302;4.844;2023-02-10T00:44:02;41.42;38.29;43.88;;
69611;Laerm;56817;52.302;4.844;2023-02-10T00:44:13;41.05;37.18;44.10;;
69611;Laerm;56817;52.302;4.844;2023-02-10T00:44:23;41.43;38.62;44.54;;
69611;Laerm;56817;52.302;4.844;2023-02-10T00:44:33;41.87;39.78;44.03;;
69611;Laerm;56817;52.302;4.844;2023-02-10T00:44:43;41.94;39.32;44.40;;
69611;Laerm;56817;52.302;4.844;2023-02-10T00:44:54;41.95;39.16;45.01;;
69611;Laerm;56817;52.302;4.844;2023-02-10T00:45:05;42.69;40.12;45.71;;
69611;Laerm;56817;52.302;4.844;2023-02-10T00:45:15;42.41;39.82;45.06;;
69611;Laerm;56817;52.302;4.844;2023-02-10T00:45:25;42.45;39.87;44.90;;
69611;Laerm;56817;52.302;4.844;2023-02-10T00:45:35;42.61;39.98;49.31;;
69611;Laerm;56817;52.302;4.844;2023-02-10T00:45:46;41.64;38.26;44.57;;
69611;Laerm;56817;52.302;4.844;2023-02-10T00:45:56;41.44;38.94;43.56;;
69611;Laerm;56817;52.302;4.844;2023-02-10T00:46:06;41.69;39.31;43.86;;
69611;Laerm;56817;52.302;4.844;2023-02-10T00:46:18;41.87;38.89;44.96;;
69611;Laerm;56817;52.302;4.844;2023-02-10T00:46:28;41.94;38.99;45.35;;
69611;Laerm;56817;52.302;4.844;2023-02-10T00:46:39;41.09;36.08;44.01;;
69611;Laerm;56817;52.302;4.844;2023-02-10T00:46:49;41.11;38.17;44.45;;
69611;Laerm;56817;52.302;4.844;2023-02-10T00:46:59;41.91;39.26;44.44;;
69611;Laerm;56817;52.302;4.844;2023-02-10T00:47:09;42.10;39.22;44.95;;
69611;Laerm;56817;52.302;4.844;2023-02-10T00:47:20;42.51;38.76;45.02;;
69611;Laerm;56817;52.302;4.844;2023-02-10T00:47:30;40.76;38.00;43.71;;
69611;Laerm;56817;52.302;4.844;2023-02-10T00:47:40;41.18;37.71;43.87;;
69611;Laerm;56817;52.302;4.844;2023-02-10T00:47:51;41.27;38.10;43.94;;
69611;Laerm;56817;52.302;4.844;2023-02-10T00:48:01;42.14;39.48;44.88;;
69611;Laerm;56817;52.302;4.844;2023-02-10T00:48:11;42.04;38.75;45.32;;
69611;Laerm;56817;52.302;4.844;2023-02-10T00:48:21;42.09;39.00;44.14;;
69611;Laerm;56817;52.302;4.844;2023-02-10T00:48:32;41.72;39.23;44.18;;
69611;Laerm;56817;52.302;4.844;2023-02-10T00:48:42;42.12;39.40;44.84;;
69611;Laerm;56817;52.302;4.844;2023-02-10T00:48:53;42.70;39.48;45.44;;
69611;Laerm;56817;52.302;4.844;2023-02-10T00:49:03;42.49;39.65;44.87;;
69611;Laerm;56817;52.302;4.844;2023-02-10T00:49:14;41.89;39.04;44.03;;
69611;Laerm;56817;52.302;4.844;2023-02-10T00:49:24;42.57;39.19;44.83;;
69611;Laerm;56817;52.302;4.844;2023-02-10T00:49:34;43.71;40.06;45.78;;
69611;Laerm;56817;52.302;4.844;2023-02-10T00:49:44;43.43;41.17;45.74;;
69611;Laerm;56817;52.302;4.844;2023-02-10T00:49:55;43.49;40.58;45.98;;
69611;Laerm;56817;52.302;4.844;2023-02-10T00:50:05;43.99;40.95;47.58;;
69611;Laerm;56817;52.302;4.844;2023-02-10T00:50:16;43.44;40.05;46.89;;
69611;Laerm;56817;52.302;4.844;2023-02-10T00:50:26;41.85;39.08;44.23;;
69611;Laerm;56817;52.302;4.844;2023-02-10T00:50:36;41.66;39.47;44.26;;
69611;Laerm;56817;52.302;4.844;2023-02-10T00:50:46;42.21;39.43;44.41;;
69611;Laerm;56817;52.302;4.844;2023-02-10T00:50:57;41.75;37.95;43.91;;
69611;Laerm;56817;52.302;4.844;2023-02-10T00:51:07;42.12;39.63;45.57;;
69611;Laerm;56817;52.302;4.844;2023-02-10T00:51:17;43.12;40.00;46.32;;
69611;Laerm;56817;52.302;4.844;2023-02-10T00:51:27;42.49;40.55;44.67;;
69611;Laerm;56817;52.302;4.844;2023-02-10T00:51:38;42.91;40.62;44.64;;
69611;Laerm;56817;52.302;4.844;2023-02-10T00:51:48;41.64;38.16;43.89;;
69611;Laerm;56817;52.302;4.844;2023-02-10T00:51:58;41.29;37.89;44.39;;
69611;Laerm;56817;52.302;4.844;2023-02-10T00:52:08;41.10;37.98;43.82;;
69611;Laerm;56817;52.302;4.844;2023-02-10T00:52:19;41.67;38.58;44.09;;
69611;Laerm;56817;52.302;4.844;2023-02-10T00:52:29;40.88;38.51;43.12;;
69611;Laerm;56817;52.302;4.844;2023-02-10T00:52:39;41.06;37.93;44.35;;
69611;Laerm;56817;52.302;4.844;2023-02-10T00:52:49;43.40;40.44;46.03;;
69611;Laerm;56817;52.302;4.844;2023-02-10T00:53:00;42.16;39.68;45.11;;
69611;Laerm;56817;52.302;4.844;2023-02-10T00:53:10;42.11;40.13;43.98;;
69611;Laerm;56817;52.302;4.844;2023-02-10T00:53:20;41.55;39.14;43.42;;
69611;Laerm;56817;52.302;4.844;2023-02-10T00:53:31;42.00;39.10;44.39;;
69611;Laerm;56817;52.302;4.844;2023-02-10T00:53:42;41.67;39.48;43.85;;
69611;Laerm;56817;52.302;4.844;2023-02-10T00:53:52;41.50;38.67;43.89;;
69611;Laerm;56817;52.302;4.844;2023-02-10T00:54:02;41.21;38.29;43.08;;
69611;Laerm;56817;52.302;4.844;2023-02-10T00:54:13;41.52;38.46;44.33;;
69611;Laerm;56817;52.302;4.844;2023-02-10T00:54:23;40.96;37.92;43.12;;
69611;Laerm;56817;52.302;4.844;2023-02-10T00:54:33;41.84;38.37;44.45;;
69611;Laerm;56817;52.302;4.844;2023-02-10T00:54:44;41.48;39.02;43.89;;
69611;Laerm;56817;52.302;4.844;2023-02-10T00:54:54;41.61;38.88;44.13;;
69611;Laerm;56817;52.302;4.844;2023-02-10T00:55:04;42.41;39.78;44.91;;
69611;Laerm;56817;52.302;4.844;2023-02-10T00:55:14;41.88;39.71;43.91;;
69611;Laerm;56817;52.302;4.844;2023-02-10T00:55:25;41.92;39.56;44.07;;
69611;Laerm;56817;52.302;4.844;2023-02-10T00:55:35;41.00;37.81;44.54;;
69611;Laerm;56817;52.302;4.844;2023-02-10T00:55:45;41.34;39.10;43.51;;
69611;Laerm;56817;52.302;4.844;2023-02-10T00:55:56;41.47;38.79;43.70;;
69611;Laerm;56817;52.302;4.844;2023-02-10T00:56:06;41.71;38.90;44.12;;
69611;Laerm;56817;52.302;4.844;2023-02-10T00:56:17;40.71;35.04;43.29;;
69611;Laerm;56817;52.302;4.844;2023-02-10T00:56:28;40.82;36.82;43.86;;
69611;Laerm;56817;52.302;4.844;2023-02-10T00:56:41;41.73;36.95;44.21;;
69611;Laerm;56817;52.302;4.844;2023-02-10T00:56:52;41.85;39.33;44.36;;
69611;Laerm;56817;52.302;4.844;2023-02-10T00:57:02;41.69;39.37;43.98;;
69611;Laerm;56817;52.302;4.844;2023-02-10T00:57:12;42.30;38.93;44.90;;
69611;Laerm;56817;52.302;4.844;2023-02-10T00:57:22;42.25;39.84;44.44;;
69611;Laerm;56817;52.302;4.844;2023-02-10T00:57:33;43.07;40.93;45.21;;
69611;Laerm;56817;52.302;4.844;2023-02-10T00:57:43;43.43;40.93;47.43;;
69611;Laerm;56817;52.302;4.844;2023-02-10T00:57:53;42.04;39.40;45.09;;
69611;Laerm;56817;52.302;4.844;2023-02-10T00:58:03;41.58;39.40;44.36;;
69611;Laerm;56817;52.302;4.844;2023-02-10T00:58:14;42.42;39.68;45.50;;
69611;Laerm;56817;52.302;4.844;2023-02-10T00:58:24;42.54;39.89;44.72;;
69611;Laerm;56817;52.302;4.844;2023-02-10T00:58:35;42.27;39.76;44.71;;
69611;Laerm;56817;52.302;4.844;2023-02-10T00:58:46;41.57;39.05;44.32;;
69611;Laerm;56817;52.302;4.844;2023-02-10T00:58:56;41.42;38.01;44.03;;
69611;Laerm;56817;52.302;4.844;2023-02-10T00:59:06;40.94;38.07;43.68;;
69611;Laerm;56817;52.302;4.844;2023-02-10T00:59:17;41.08;38.64;43.53;;
69611;Laerm;56817;52.302;4.844;2023-02-10T00:59:27;41.74;39.79;44.06;;
69611;Laerm;56817;52.302;4.844;2023-02-10T00:59:37;41.77;38.68;43.89;;